createdAt,value
2023-03-26T00:02:51.943Z,9.26
2023-03-26T00:06:04.250Z,9.03
2023-03-26T00:09:10.322Z,8.82
2023-03-26T00:12:12.869Z,8.75
2023-03-26T00:15:15.449Z,8.74
2023-03-26T00:18:20.002Z,8.72
2023-03-26T00:21:26.182Z,8.76
2023-03-26T00:24:30.647Z,8.92
2023-03-26T00:27:33.832Z,8.94
2023-03-26T00:30:36.656Z,8.91
2023-03-26T00:33:40.640Z,8.86
2023-03-26T00:36:43.963Z,8.86
2023-03-26T00:39:49.136Z,8.94
2023-03-26T00:42:51.678Z,8.85
2023-03-26T00:45:55.826Z,8.76
2023-03-26T00:48:59.756Z,8.78
2023-03-26T00:52:03.091Z,8.84
2023-03-26T00:55:08.356Z,9.01
2023-03-26T00:58:10.979Z,9.08
2023-03-26T01:01:16.058Z,9.08
2023-03-26T01:04:24.149Z,9.05
2023-03-26T01:07:29.076Z,9.02
2023-03-26T01:10:38.626Z,9.05
2023-03-26T01:13:44.725Z,8.97
2023-03-26T01:16:52.012Z,8.97
2023-03-26T01:19:59.004Z,9.07
2023-03-26T01:23:05.252Z,9.03
2023-03-26T01:26:13.453Z,9.07
2023-03-26T01:29:23.685Z,9.23
2023-03-26T01:32:37.661Z,9.24
2023-03-26T01:35:45.794Z,9.27
2023-03-26T01:38:52.698Z,9.26
2023-03-26T01:41:58.955Z,9.32
2023-03-26T01:45:05.171Z,9.38
2023-03-26T01:48:08.237Z,9.36
2023-03-26T01:51:12.937Z,9.46
2023-03-26T01:54:18.257Z,9.47
2023-03-26T01:57:30.187Z,9.47
2023-03-26T02:00:34.978Z,9.62
2023-03-26T02:03:41.872Z,9.60
2023-03-26T02:06:47.329Z,9.54
2023-03-26T02:09:52.702Z,9.46
2023-03-26T02:12:57.270Z,9.62
2023-03-26T02:16:01.515Z,9.65
2023-03-26T02:19:05.006Z,9.70
2023-03-26T02:22:10.979Z,9.74
2023-03-26T02:25:15.382Z,9.73
2023-03-26T02:28:20.017Z,9.57
2023-03-26T02:31:26.124Z,9.62
2023-03-26T02:34:28.759Z,9.60
2023-03-26T02:37:33.842Z,9.56
2023-03-26T02:40:36.347Z,9.56
2023-03-26T02:43:40.160Z,9.52
2023-03-26T02:46:42.723Z,9.41
2023-03-26T02:49:45.495Z,9.40
2023-03-26T02:52:49.811Z,9.36
2023-03-26T02:55:52.487Z,9.28
2023-03-26T02:58:56.779Z,9.25
2023-03-26T03:01:59.287Z,9.31
2023-03-26T03:05:02.050Z,9.46
2023-03-26T03:08:05.939Z,9.56
2023-03-26T03:11:10.865Z,9.44
2023-03-26T03:14:14.716Z,9.54
2023-03-26T03:17:17.204Z,9.67
2023-03-26T03:20:19.760Z,9.77
2023-03-26T03:23:22.247Z,9.76
2023-03-26T03:26:27.685Z,9.80
2023-03-26T03:29:31.692Z,9.82
2023-03-26T03:32:34.528Z,9.86
2023-03-26T03:35:37.773Z,9.89
2023-03-26T03:38:41.661Z,9.98
2023-03-26T03:41:44.310Z,9.99
2023-03-26T03:44:48.170Z,10.00
2023-03-26T03:47:50.724Z,10.12
2023-03-26T03:50:53.985Z,10.12
2023-03-26T03:53:56.774Z,10.14
2023-03-26T03:56:59.395Z,10.19
2023-03-26T04:00:06.347Z,10.27
2023-03-26T04:03:10.062Z,10.31
2023-03-26T04:06:12.806Z,10.33
2023-03-26T04:09:15.375Z,10.29
2023-03-26T04:12:17.924Z,10.29
2023-03-26T04:15:21.934Z,10.30
2023-03-26T04:18:24.439Z,10.36
2023-03-26T04:21:30.342Z,10.33
2023-03-26T04:24:38.216Z,10.26
2023-03-26T04:27:43.261Z,10.27
2023-03-26T04:30:47.075Z,10.26
2023-03-26T04:33:49.757Z,10.24
2023-03-26T04:36:54.314Z,10.23
2023-03-26T04:39:56.953Z,10.17
2023-03-26T04:43:02.233Z,10.09
2023-03-26T04:46:07.600Z,10.08
2023-03-26T04:49:10.576Z,10.01
2023-03-26T04:52:13.178Z,9.83
2023-03-26T04:55:21.893Z,9.88
2023-03-26T04:58:30.095Z,9.85
2023-03-26T05:01:37.750Z,9.85
2023-03-26T05:04:40.568Z,9.90
2023-03-26T05:07:43.264Z,9.92
2023-03-26T05:10:45.881Z,10.06
2023-03-26T05:13:48.388Z,10.13
2023-03-26T05:16:53.294Z,10.11
2023-03-26T05:19:55.815Z,10.15
2023-03-26T05:22:58.312Z,10.18
2023-03-26T05:26:00.814Z,10.25
2023-03-26T05:29:03.775Z,10.33
2023-03-26T05:32:07.964Z,10.36
2023-03-26T05:35:11.597Z,10.47
2023-03-26T05:38:13.917Z,10.53
2023-03-26T05:41:17.604Z,10.51
2023-03-26T05:44:19.981Z,10.60
2023-03-26T05:47:23.918Z,10.60
2023-03-26T05:50:26.451Z,10.59
2023-03-26T05:53:28.928Z,10.63
2023-03-26T05:56:31.860Z,10.58
2023-03-26T05:59:34.532Z,10.68
2023-03-26T06:02:38.904Z,10.65
2023-03-26T06:05:42.928Z,10.35
2023-03-26T06:08:46.804Z,10.27
2023-03-26T06:11:49.464Z,10.15
2023-03-26T06:14:51.970Z,10.16
2023-03-26T06:17:56.027Z,10.13
2023-03-26T06:20:58.701Z,10.18
2023-03-26T06:24:01.329Z,10.32
2023-03-26T06:27:03.953Z,10.34
2023-03-26T06:30:07.835Z,10.44
2023-03-26T06:33:11.753Z,10.42
2023-03-26T06:36:14.377Z,10.61
2023-03-26T06:39:17.054Z,10.67
2023-03-26T06:42:19.916Z,10.56
2023-03-26T06:45:22.443Z,10.62
2023-03-26T06:48:26.691Z,10.66
2023-03-26T06:51:29.240Z,10.73
2023-03-26T06:54:31.911Z,10.70
2023-03-26T06:57:34.420Z,10.58
2023-03-26T07:00:36.955Z,10.68
2023-03-26T07:03:41.007Z,10.59
2023-03-26T07:06:43.723Z,10.61
2023-03-26T07:09:46.194Z,10.73
2023-03-26T07:12:48.820Z,11.03
2023-03-26T07:15:51.283Z,11.05
2023-03-26T07:18:55.314Z,11.01
2023-03-26T07:21:58.487Z,11.15
2023-03-26T07:25:01.614Z,10.96
2023-03-26T07:28:12.430Z,11.02
2023-03-26T07:31:25.061Z,10.91
2023-03-26T07:34:39.125Z,10.83
2023-03-26T07:37:48.056Z,10.68
2023-03-26T07:40:58.195Z,10.49
2023-03-26T07:44:11.471Z,10.39
2023-03-26T07:47:25.861Z,10.15
2023-03-26T07:50:30.597Z,10.06
2023-03-26T07:53:33.693Z,10.25
2023-03-26T07:56:40.028Z,10.29
2023-03-26T07:59:46.942Z,9.99
2023-03-26T08:03:12.245Z,9.91
2023-03-26T08:06:18.796Z,9.92
2023-03-26T08:09:24.968Z,9.91
2023-03-26T08:12:38.354Z,9.98
2023-03-26T08:15:47.637Z,10.10
2023-03-26T08:18:54.259Z,10.05
2023-03-26T08:22:02.058Z,10.04
2023-03-26T08:25:18.658Z,10.07
2023-03-26T08:28:32.432Z,9.96
2023-03-26T08:31:39.012Z,10.07
2023-03-26T08:34:41.946Z,10.16
2023-03-26T08:37:45.889Z,10.02
2023-03-26T08:41:17.016Z,10.03
2023-03-26T08:44:53.452Z,9.88
2023-03-26T08:48:41.198Z,10.14
2023-03-26T08:52:16.352Z,10.46
2023-03-26T08:55:36.468Z,11.08
2023-03-26T08:59:09.538Z,10.91
2023-03-26T09:02:25.292Z,11.46
2023-03-26T09:06:01.603Z,12.10
2023-03-26T09:09:40.808Z,11.65
2023-03-26T09:13:15.252Z,12.59
2023-03-26T09:16:33.545Z,14.08
2023-03-26T09:19:58.459Z,13.83
2023-03-26T09:23:42.552Z,13.06
2023-03-26T09:26:47.782Z,13.03
2023-03-26T09:30:19.812Z,14.00
2023-03-26T09:33:57.117Z,13.90
2023-03-26T09:37:12.199Z,14.18
2023-03-26T09:40:18.674Z,14.94
2023-03-26T09:43:50.515Z,15.07
2023-03-26T09:47:07.956Z,14.93
2023-03-26T09:50:21.588Z,15.77
2023-03-26T09:53:50.429Z,15.45
2023-03-26T09:56:57.674Z,16.43
2023-03-26T10:00:09.764Z,16.02
2023-03-26T10:03:30.459Z,15.39
2023-03-26T10:06:38.747Z,15.92
2023-03-26T10:09:52.111Z,16.29
2023-03-26T10:13:08.318Z,16.10
2023-03-26T10:16:22.637Z,15.20
2023-03-26T10:19:36.848Z,14.96
2023-03-26T10:22:48.547Z,15.09
2023-03-26T10:25:59.937Z,15.93
2023-03-26T10:29:25.327Z,15.49
2023-03-26T10:32:33.715Z,15.02
2023-03-26T10:35:46.531Z,14.56
2023-03-26T10:39:36.781Z,14.28
2023-03-26T10:43:14.280Z,14.78
2023-03-26T10:46:28.982Z,14.21
2023-03-26T10:49:49.096Z,13.81
2023-03-26T10:52:56.115Z,14.81
2023-03-26T10:56:02.189Z,15.10
2023-03-26T10:59:08.173Z,15.95
2023-03-26T11:02:30.624Z,16.97
2023-03-26T11:05:47.339Z,17.28
2023-03-26T11:08:56.571Z,16.76
2023-03-26T11:12:25.517Z,16.80
2023-03-26T11:15:30.076Z,16.99
2023-03-26T11:18:38.311Z,16.46
2023-03-26T11:21:45.294Z,15.92
2023-03-26T11:25:05.548Z,15.52
2023-03-26T11:28:15.870Z,15.93
2023-03-26T11:31:21.104Z,15.26
2023-03-26T11:34:28.321Z,15.20
2023-03-26T11:37:34.302Z,15.32
2023-03-26T11:40:39.731Z,15.78
2023-03-26T11:43:42.450Z,16.18
2023-03-26T11:46:47.151Z,16.42
2023-03-26T11:49:51.864Z,16.86
2023-03-26T11:52:55.244Z,16.86
2023-03-26T11:56:02.351Z,17.25
2023-03-26T11:59:07.604Z,17.56
2023-03-26T12:02:20.808Z,16.88
2023-03-26T12:05:26.657Z,16.58
2023-03-26T12:08:35.187Z,17.55
2023-03-26T12:11:39.037Z,18.92
2023-03-26T12:14:43.844Z,19.00
2023-03-26T12:17:48.079Z,18.68
2023-03-26T12:21:08.246Z,16.75
2023-03-26T12:24:25.922Z,17.03
2023-03-26T12:27:30.861Z,17.89
2023-03-26T12:30:34.767Z,18.15
2023-03-26T12:33:38.954Z,19.32
2023-03-26T12:36:41.602Z,18.99
2023-03-26T12:40:15.528Z,18.86
2023-03-26T12:44:48.636Z,16.39
2023-03-26T12:48:00.999Z,16.21
2023-03-26T12:50:42.681Z,15.65
2023-03-26T12:54:00.347Z,16.56
2023-03-26T12:57:21.344Z,16.89
2023-03-26T13:00:32.664Z,18.68
2023-03-26T13:03:44.951Z,24.35
2023-03-26T13:07:02.044Z,30.66
2023-03-26T13:10:37.436Z,32.43
2023-03-26T13:14:13.611Z,34.13
2023-03-26T13:17:23.677Z,30.09
2023-03-26T13:20:32.957Z,26.61
2023-03-26T13:23:40.944Z,23.34
2023-03-26T13:26:53.196Z,19.63
2023-03-26T13:30:00.992Z,19.42
2023-03-26T13:33:20.905Z,18.78
2023-03-26T13:36:30.860Z,18.74
2023-03-26T13:39:39.015Z,18.64
2023-03-26T13:42:48.834Z,18.27
2023-03-26T13:45:56.268Z,18.10
2023-03-26T13:49:01.616Z,17.80
2023-03-26T13:52:06.965Z,17.44
2023-03-26T13:55:20.938Z,17.28
2023-03-26T13:58:34.419Z,18.02
2023-03-26T14:01:43.685Z,17.99
2023-03-26T14:04:48.849Z,17.90
2023-03-26T14:07:53.273Z,18.45
2023-03-26T14:10:58.502Z,17.86
2023-03-26T14:14:05.720Z,17.61
2023-03-26T14:17:15.696Z,16.73
2023-03-26T14:20:47.626Z,16.42
2023-03-26T14:24:20.184Z,16.20
2023-03-26T14:27:35.259Z,15.48
2023-03-26T14:31:10.201Z,14.29
2023-03-26T14:34:23.506Z,13.19
2023-03-26T14:37:49.218Z,12.92
2023-03-26T14:40:59.184Z,12.93
2023-03-26T14:44:47.979Z,11.59
2023-03-26T14:48:01.198Z,10.59
2023-03-26T14:51:12.360Z,10.04
2023-03-26T14:54:18.668Z,9.65
2023-03-26T14:58:01.865Z,10.02
2023-03-26T15:01:23.061Z,10.15
2023-03-26T15:04:58.847Z,10.40
2023-03-26T15:08:34.556Z,10.68
2023-03-26T15:11:47.424Z,11.06
2023-03-26T15:15:20.047Z,11.42
2023-03-26T15:19:17.650Z,11.48
2023-03-26T15:22:53.252Z,11.38
2023-03-26T15:26:14.331Z,11.42
2023-03-26T15:29:41.069Z,11.48
2023-03-26T15:32:57.953Z,10.99
2023-03-26T15:36:26.347Z,10.22
2023-03-26T15:39:59.490Z,9.90
2023-03-26T15:43:09.680Z,9.63
2023-03-26T15:46:33.596Z,9.50
2023-03-26T15:49:39.988Z,9.49
2023-03-26T15:52:48.754Z,9.34
2023-03-26T15:56:01.677Z,9.26
2023-03-26T15:59:11.971Z,9.26
2023-03-26T16:02:26.193Z,9.36
2023-03-26T16:05:37.795Z,9.56
2023-03-26T16:08:46.762Z,9.66
2023-03-26T16:11:54.810Z,9.75
2023-03-26T16:15:29.503Z,10.12
2023-03-26T16:18:35.923Z,10.90
2023-03-26T16:21:55.004Z,11.62
2023-03-26T16:25:27.309Z,11.33
2023-03-26T16:28:34.036Z,11.11
2023-03-26T16:31:39.271Z,10.68
2023-03-26T16:34:52.773Z,10.43
2023-03-26T16:38:05.628Z,10.25
2023-03-26T16:41:18.107Z,9.99
2023-03-26T16:44:27.768Z,10.06
2023-03-26T16:47:37.408Z,9.84
2023-03-26T16:50:46.195Z,9.59
2023-03-26T16:53:54.287Z,9.45
2023-03-26T16:57:03.131Z,9.60
2023-03-26T17:00:24.515Z,9.36
2023-03-26T17:03:37.710Z,9.29
2023-03-26T17:07:08.789Z,9.42
2023-03-26T17:10:16.554Z,9.33
2023-03-26T17:13:24.795Z,9.27
2023-03-26T17:16:30.592Z,9.08
2023-03-26T17:19:36.914Z,9.22
2023-03-26T17:22:45.057Z,9.18
2023-03-26T17:25:58.056Z,9.06
2023-03-26T17:29:09.217Z,9.20
2023-03-26T17:32:14.963Z,9.24
2023-03-26T17:35:18.140Z,9.08
2023-03-26T17:39:02.428Z,9.24
2023-03-26T17:42:19.688Z,9.19
2023-03-26T17:45:25.090Z,9.22
2023-03-26T17:48:38.866Z,9.26
2023-03-26T17:51:47.767Z,9.19
2023-03-26T17:54:53.115Z,9.18
2023-03-26T17:57:58.565Z,9.07
2023-03-26T18:01:06.594Z,9.02
2023-03-26T18:04:12.988Z,8.99
2023-03-26T18:07:36.489Z,9.08
2023-03-26T18:10:55.160Z,9.03
2023-03-26T18:14:22.926Z,8.93
2023-03-26T18:17:26.102Z,8.85
2023-03-26T18:20:29.483Z,8.89
2023-03-26T18:23:37.674Z,8.87
2023-03-26T18:26:43.419Z,8.72
2023-03-26T18:29:46.918Z,8.79
2023-03-26T18:33:00.150Z,8.67
2023-03-26T18:36:05.895Z,8.87
2023-03-26T18:39:13.353Z,8.73
2023-03-26T18:42:23.066Z,8.90
2023-03-26T18:45:29.131Z,8.88
2023-03-26T18:48:31.903Z,8.71
2023-03-26T18:51:43.233Z,8.60
2023-03-26T18:54:55.586Z,8.49
2023-03-26T18:57:59.481Z,8.39
2023-03-26T19:01:03.756Z,8.43
2023-03-26T19:04:07.950Z,8.43
2023-03-26T19:07:13.780Z,8.49
2023-03-26T19:10:21.163Z,8.34
2023-03-26T19:13:25.346Z,8.40
2023-03-26T19:16:33.571Z,8.43
2023-03-26T19:19:38.308Z,8.54
2023-03-26T19:22:42.212Z,8.73
2023-03-26T19:25:48.405Z,8.76
2023-03-26T19:28:53.621Z,8.78
2023-03-26T19:32:04.027Z,8.79
2023-03-26T19:35:20.539Z,8.62
2023-03-26T19:38:25.559Z,8.72
2023-03-26T19:41:32.883Z,8.66
2023-03-26T19:44:39.477Z,8.58
2023-03-26T19:47:48.571Z,8.40
2023-03-26T19:50:59.692Z,8.28
2023-03-26T19:54:06.096Z,8.13
2023-03-26T19:57:09.839Z,8.10
2023-03-26T20:00:14.481Z,8.06
2023-03-26T20:03:20.093Z,8.13
2023-03-26T20:06:33.936Z,8.22
2023-03-26T20:09:45.494Z,8.28
2023-03-26T20:12:48.096Z,8.28
2023-03-26T20:16:05.674Z,8.25
2023-03-26T20:19:08.890Z,8.15
2023-03-26T20:22:13.936Z,8.12
2023-03-26T20:25:19.913Z,8.12
2023-03-26T20:28:24.343Z,8.06
2023-03-26T20:31:29.996Z,8.11
2023-03-26T20:34:33.062Z,8.07
2023-03-26T20:37:35.982Z,8.07
2023-03-26T20:40:39.029Z,7.89
2023-03-26T20:43:42.379Z,7.84
2023-03-26T20:46:48.169Z,7.69
2023-03-26T20:49:50.830Z,7.64
2023-03-26T20:52:53.370Z,7.67
2023-03-26T20:55:56.536Z,7.58
2023-03-26T21:02:06.401Z,7.69
2023-03-26T21:05:14.583Z,7.75
2023-03-26T21:08:19.777Z,7.68
2023-03-26T21:11:27.334Z,7.81
2023-03-26T21:14:33.763Z,7.77
2023-03-26T21:17:38.767Z,7.89
2023-03-26T21:20:41.835Z,8.01
2023-03-26T21:23:46.739Z,8.04
2023-03-26T21:26:54.251Z,8.24
2023-03-26T21:29:58.086Z,8.14
2023-03-26T21:33:02.258Z,8.23
2023-03-26T21:36:05.668Z,8.04
2023-03-26T21:39:10.951Z,8.10
2023-03-26T21:42:14.363Z,7.91
2023-03-26T21:45:18.180Z,7.81
2023-03-26T21:48:22.483Z,7.62
2023-03-26T21:51:25.253Z,7.52
2023-03-26T21:54:30.204Z,7.44
2023-03-26T21:57:40.907Z,7.48
2023-03-26T22:00:54.765Z,7.45
2023-03-26T22:04:01.815Z,7.52
2023-03-26T22:07:06.659Z,7.46
2023-03-26T22:10:09.526Z,7.40
2023-03-26T22:13:12.033Z,7.44
2023-03-26T22:16:16.733Z,7.56
2023-03-26T22:19:20.793Z,7.47
2023-03-26T22:22:26.160Z,7.57
2023-03-26T22:25:28.763Z,7.59
2023-03-26T22:28:31.826Z,7.49
2023-03-26T22:31:34.833Z,7.38
2023-03-26T22:34:38.769Z,7.47
2023-03-26T22:37:41.676Z,7.44
2023-03-26T22:40:44.218Z,7.51
2023-03-26T22:43:47.099Z,7.52
2023-03-26T22:46:51.286Z,7.51
2023-03-26T22:49:55.831Z,7.49
2023-03-26T22:52:58.362Z,7.53
2023-03-26T22:56:01.520Z,7.58
2023-03-26T22:59:04.682Z,7.59
2023-03-26T23:02:07.271Z,7.67
2023-03-26T23:05:11.715Z,7.43
2023-03-26T23:08:14.186Z,7.58
2023-03-26T23:11:18.176Z,7.50
2023-03-26T23:14:21.768Z,7.57
2023-03-26T23:17:24.686Z,7.57
2023-03-26T23:20:29.878Z,7.58
2023-03-26T23:23:33.916Z,7.67
2023-03-26T23:26:49.520Z,7.71
2023-03-26T23:29:53.396Z,7.53
2023-03-26T23:32:57.169Z,7.74
2023-03-26T23:36:04.209Z,7.62
2023-03-26T23:39:10.934Z,7.64
2023-03-26T23:42:13.453Z,7.61
2023-03-26T23:45:16.530Z,7.64
2023-03-26T23:48:22.199Z,7.61
2023-03-26T23:51:26.176Z,7.58
2023-03-26T23:54:30.005Z,7.56
2023-03-26T23:57:32.509Z,7.66
